createdAt,value
2024-02-18T00:00:08.082Z,79.75
2024-02-18T00:01:09.784Z,80.27
2024-02-18T00:02:11.623Z,80.22
2024-02-18T00:03:13.117Z,80.06
2024-02-18T00:04:14.784Z,80.05
2024-02-18T00:05:16.822Z,80.48
2024-02-18T00:06:18.423Z,80.26
2024-02-18T00:07:20.123Z,79.74
2024-02-18T00:08:21.899Z,79.68
2024-02-18T00:09:23.449Z,79.37
2024-02-18T00:10:24.991Z,79.24
2024-02-18T00:11:26.960Z,79.31
2024-02-18T00:12:28.680Z,79.37
2024-02-18T00:13:30.296Z,80.04
2024-02-18T00:14:31.858Z,80.45
2024-02-18T00:15:33.390Z,80.87
2024-02-18T00:16:34.883Z,80.99
2024-02-18T00:17:36.447Z,81.42
2024-02-18T00:18:38.263Z,81.15
2024-02-18T00:19:40.413Z,81.74
2024-02-18T00:20:41.945Z,81.31
2024-02-18T00:21:43.552Z,81.94
2024-02-18T00:22:45.132Z,81.83
2024-02-18T00:23:46.844Z,82.09
2024-02-18T00:24:49.530Z,81.94
2024-02-18T00:25:51.091Z,81.54
2024-02-18T00:26:58.502Z,81.60
2024-02-18T00:28:01.125Z,81.46
2024-02-18T00:29:02.766Z,81.24
2024-02-18T00:30:06.054Z,81.05
2024-02-18T00:31:07.752Z,81.19
2024-02-18T00:32:09.291Z,80.79
2024-02-18T00:33:10.908Z,81.29
2024-02-18T00:34:12.861Z,81.02
2024-02-18T00:35:14.498Z,80.31
2024-02-18T00:36:16.084Z,79.92
2024-02-18T00:37:18.921Z,79.79
2024-02-18T00:38:20.461Z,79.14
2024-02-18T00:39:22.332Z,79.57
2024-02-18T00:40:23.966Z,80.30
2024-02-18T00:41:25.599Z,80.00
2024-02-18T00:42:28.406Z,80.29
2024-02-18T00:43:30.364Z,80.13
2024-02-18T00:44:31.913Z,79.95
2024-02-18T00:45:33.951Z,79.57
2024-02-18T00:46:43.608Z,79.67
2024-02-18T00:47:50.147Z,80.43
2024-02-18T00:48:51.907Z,80.25
2024-02-18T00:49:54.024Z,79.95
2024-02-18T00:50:55.659Z,80.92
2024-02-18T00:51:57.264Z,80.97
2024-02-18T00:52:58.801Z,80.39
2024-02-18T00:54:00.462Z,79.95
2024-02-18T00:55:02.279Z,80.34
2024-02-18T00:56:03.915Z,80.03
2024-02-18T00:57:05.567Z,79.69
2024-02-18T00:58:07.072Z,79.90
2024-02-18T00:59:08.616Z,80.00
2024-02-18T01:00:11.462Z,80.33
2024-02-18T01:01:13.139Z,80.69
2024-02-18T01:02:14.793Z,80.69
2024-02-18T01:03:16.378Z,81.02
2024-02-18T01:04:18.081Z,81.18
2024-02-18T01:05:19.695Z,81.26
2024-02-18T01:06:21.346Z,80.33
2024-02-18T01:07:23.133Z,80.16
2024-02-18T01:08:24.592Z,80.08
2024-02-18T01:09:26.131Z,79.53
2024-02-18T01:10:27.856Z,79.93
2024-02-18T01:11:31.908Z,79.92
2024-02-18T01:12:33.460Z,80.26
2024-02-18T01:13:35.109Z,80.53
2024-02-18T01:14:36.895Z,80.58
2024-02-18T01:15:39.289Z,81.00
2024-02-18T01:16:41.895Z,81.44
2024-02-18T01:17:43.822Z,80.76
2024-02-18T01:18:47.141Z,80.43
2024-02-18T01:19:51.769Z,79.66
2024-02-18T01:20:53.746Z,79.73
2024-02-18T01:21:55.501Z,79.20
2024-02-18T01:22:57.038Z,80.07
2024-02-18T01:23:58.595Z,79.44
2024-02-18T01:25:00.428Z,80.16
2024-02-18T01:26:04.672Z,79.68
2024-02-18T01:27:06.245Z,80.01
2024-02-18T01:28:07.830Z,80.73
2024-02-18T01:29:09.970Z,80.63
2024-02-18T01:30:12.001Z,80.78
2024-02-18T01:31:13.589Z,81.46
2024-02-18T01:32:15.092Z,81.23
2024-02-18T01:33:16.610Z,81.66
2024-02-18T01:34:18.272Z,81.45
2024-02-18T01:35:19.945Z,80.53
2024-02-18T01:36:21.501Z,80.45
2024-02-18T01:37:23.232Z,81.02
2024-02-18T01:38:24.700Z,80.36
2024-02-18T01:39:27.167Z,80.63
2024-02-18T01:40:28.728Z,79.71
2024-02-18T01:41:30.258Z,80.51
2024-02-18T01:42:31.758Z,79.72
2024-02-18T01:43:33.634Z,79.52
2024-02-18T01:44:36.796Z,79.91
2024-02-18T01:45:38.573Z,80.38
2024-02-18T01:46:40.300Z,81.37
2024-02-18T01:47:44.047Z,81.44
2024-02-18T01:48:45.773Z,82.03
2024-02-18T01:49:49.600Z,81.69
2024-02-18T01:50:51.498Z,81.79
2024-02-18T01:51:53.314Z,81.17
2024-02-18T01:52:55.327Z,81.32
2024-02-18T01:53:57.731Z,81.80
2024-02-18T01:54:59.651Z,81.75
2024-02-18T01:56:01.507Z,81.47
2024-02-18T01:57:04.958Z,81.52
2024-02-18T01:58:06.641Z,80.85
2024-02-18T01:59:08.427Z,79.89
2024-02-18T02:00:14.022Z,80.10
2024-02-18T02:01:17.456Z,80.03
2024-02-18T02:02:19.438Z,79.37
2024-02-18T02:03:24.270Z,79.47
2024-02-18T02:04:28.307Z,79.82
2024-02-18T02:05:31.006Z,80.39
2024-02-18T02:06:32.602Z,80.32
2024-02-18T02:07:34.206Z,80.66
2024-02-18T02:08:35.730Z,80.60
2024-02-18T02:09:37.730Z,81.21
2024-02-18T02:10:39.366Z,80.82
2024-02-18T02:11:40.936Z,81.14
2024-02-18T02:12:43.708Z,81.09
2024-02-18T02:13:45.232Z,80.56
2024-02-18T02:14:46.759Z,81.03
2024-02-18T02:15:48.498Z,81.63
2024-02-18T02:16:50.168Z,80.81
2024-02-18T02:17:51.740Z,80.37
2024-02-18T02:18:53.393Z,80.68
2024-02-18T02:19:55.033Z,80.75
2024-02-18T02:20:56.708Z,80.95
2024-02-18T02:21:58.242Z,80.85
2024-02-18T02:22:59.810Z,80.23
2024-02-18T02:24:01.348Z,80.10
2024-02-18T02:25:03.328Z,79.51
2024-02-18T02:26:05.201Z,79.85
2024-02-18T02:27:09.616Z,80.07
2024-02-18T02:28:18.943Z,80.83
2024-02-18T02:29:21.028Z,81.22
2024-02-18T02:30:22.719Z,81.08
2024-02-18T02:31:24.299Z,80.72
2024-02-18T02:32:25.987Z,80.82
2024-02-18T02:33:28.195Z,80.83
2024-02-18T02:34:29.877Z,80.63
2024-02-18T02:35:32.200Z,81.42
2024-02-18T02:36:33.791Z,82.16
2024-02-18T02:37:35.590Z,82.14
2024-02-18T02:38:37.936Z,82.56
2024-02-18T02:39:39.509Z,83.13
2024-02-18T02:40:41.499Z,82.79
2024-02-18T02:41:42.989Z,82.64
2024-02-18T02:42:44.514Z,82.20
2024-02-18T02:43:46.116Z,82.68
2024-02-18T02:44:47.673Z,82.51
2024-02-18T02:45:49.238Z,82.05
2024-02-18T02:46:50.740Z,81.23
2024-02-18T02:47:53.766Z,80.72
2024-02-18T02:48:55.461Z,80.41
2024-02-18T02:49:57.098Z,80.77
2024-02-18T02:50:58.707Z,80.90
2024-02-18T02:52:00.582Z,80.52
2024-02-18T02:53:02.131Z,80.73
2024-02-18T02:54:03.762Z,81.39
2024-02-18T02:55:06.128Z,81.71
2024-02-18T02:56:10.194Z,81.59
2024-02-18T02:57:11.707Z,81.49
2024-02-18T02:58:13.288Z,80.95
2024-02-18T02:59:14.899Z,80.86
2024-02-18T03:01:18.795Z,80.30
2024-02-18T03:02:21.764Z,79.97
2024-02-18T03:03:23.305Z,79.84
2024-02-18T03:04:25.267Z,80.57
2024-02-18T03:05:26.873Z,80.76
2024-02-18T03:06:28.506Z,81.30
2024-02-18T03:07:33.233Z,81.13
2024-02-18T03:08:34.927Z,81.86
2024-02-18T03:09:36.425Z,81.26
2024-02-18T03:10:40.473Z,81.35
2024-02-18T03:11:41.987Z,81.85
2024-02-18T03:12:43.672Z,81.25
2024-02-18T03:13:45.214Z,81.15
2024-02-18T03:14:46.712Z,81.11
2024-02-18T03:15:48.659Z,80.41
2024-02-18T03:16:50.330Z,80.33
2024-02-18T03:17:51.932Z,80.10
2024-02-18T03:18:53.584Z,80.51
2024-02-18T03:19:55.845Z,80.81
2024-02-18T03:20:58.467Z,80.81
2024-02-18T03:22:00.057Z,81.20
2024-02-18T03:23:01.821Z,81.14
2024-02-18T03:24:03.819Z,81.63
2024-02-18T03:25:05.874Z,81.24
2024-02-18T03:26:07.709Z,81.19
2024-02-18T03:27:09.147Z,81.21
2024-02-18T03:28:11.464Z,81.13
2024-02-18T03:29:13.035Z,80.96
2024-02-18T03:30:14.906Z,81.05
2024-02-18T03:31:18.756Z,80.72
2024-02-18T03:32:20.233Z,81.11
2024-02-18T03:33:21.925Z,81.64
2024-02-18T03:34:23.629Z,82.09
2024-02-18T03:35:28.602Z,82.42
2024-02-18T03:36:32.059Z,82.48
2024-02-18T03:37:34.423Z,81.84
2024-02-18T03:38:35.946Z,81.65
2024-02-18T03:39:38.390Z,82.40
2024-02-18T03:40:43.001Z,82.89
2024-02-18T03:41:44.730Z,82.58
2024-02-18T03:42:46.627Z,82.35
2024-02-18T03:43:48.967Z,82.03
2024-02-18T03:44:50.568Z,82.29
2024-02-18T03:45:52.167Z,81.59
2024-02-18T03:46:53.707Z,82.46
2024-02-18T03:47:55.770Z,82.12
2024-02-18T03:48:57.322Z,81.73
2024-02-18T03:49:59.043Z,82.13
2024-02-18T03:51:00.681Z,82.27
2024-02-18T03:52:02.325Z,82.32
2024-02-18T03:53:04.010Z,82.25
2024-02-18T03:54:05.524Z,82.00
2024-02-18T03:55:07.242Z,81.01
2024-02-18T03:56:12.542Z,82.00
2024-02-18T03:57:14.765Z,81.14
2024-02-18T03:58:16.766Z,81.37
2024-02-18T03:59:18.595Z,82.08
2024-02-18T04:00:20.313Z,82.84
2024-02-18T04:01:22.078Z,82.94
2024-02-18T04:02:23.885Z,82.89
2024-02-18T04:03:25.424Z,82.95
2024-02-18T04:04:27.149Z,82.94
2024-02-18T04:05:28.848Z,82.82
2024-02-18T04:06:30.769Z,82.86
2024-02-18T04:07:32.906Z,83.08
2024-02-18T04:08:34.547Z,82.15
2024-02-18T04:09:36.250Z,81.25
2024-02-18T04:10:37.864Z,81.05
2024-02-18T04:11:39.935Z,80.67
2024-02-18T04:12:41.562Z,80.76
2024-02-18T04:13:43.697Z,80.82
2024-02-18T04:14:45.172Z,80.70
2024-02-18T04:15:46.746Z,81.80
2024-02-18T04:16:48.378Z,81.51
2024-02-18T04:17:50.770Z,80.97
2024-02-18T04:18:55.023Z,81.01
2024-02-18T04:19:56.664Z,81.45
2024-02-18T04:20:58.723Z,81.64
2024-02-18T04:22:00.520Z,81.83
2024-02-18T04:23:02.169Z,82.25
2024-02-18T04:24:09.799Z,81.95
2024-02-18T04:25:11.876Z,82.86
2024-02-18T04:26:13.783Z,83.48
2024-02-18T04:27:15.334Z,82.98
2024-02-18T04:28:16.914Z,83.19
2024-02-18T04:29:18.439Z,82.88
2024-02-18T04:30:19.925Z,82.96
2024-02-18T04:31:21.613Z,83.13
2024-02-18T04:32:23.110Z,83.05
2024-02-18T04:33:24.696Z,82.77
2024-02-18T04:34:26.301Z,82.46
2024-02-18T04:35:27.989Z,82.08
2024-02-18T04:36:29.483Z,81.98
2024-02-18T04:37:31.083Z,81.70
2024-02-18T04:38:32.654Z,81.65
2024-02-18T04:39:34.286Z,81.87
2024-02-18T04:40:35.857Z,81.87
2024-02-18T04:41:37.901Z,81.55
2024-02-18T04:42:39.412Z,81.87
2024-02-18T04:43:41.313Z,82.19
2024-02-18T04:44:42.851Z,82.69
2024-02-18T04:45:46.151Z,82.13
2024-02-18T04:46:47.644Z,82.76
2024-02-18T04:47:49.334Z,82.84
2024-02-18T04:48:52.283Z,82.68
2024-02-18T04:49:53.843Z,83.19
2024-02-18T04:50:55.271Z,82.44
2024-02-18T04:51:56.848Z,83.13
2024-02-18T04:52:58.362Z,83.75
2024-02-18T04:53:59.858Z,83.45
2024-02-18T04:55:02.298Z,83.30
2024-02-18T04:56:03.971Z,84.02
2024-02-18T04:57:06.443Z,84.01
2024-02-18T04:58:08.297Z,84.16
2024-02-18T04:59:09.891Z,84.08
2024-02-18T05:00:12.158Z,83.51
2024-02-18T05:01:13.739Z,82.87
2024-02-18T05:02:16.373Z,82.59
2024-02-18T05:03:17.966Z,81.47
2024-02-18T05:04:19.537Z,82.16
2024-02-18T05:05:21.201Z,82.47
2024-02-18T05:06:22.759Z,82.54
2024-02-18T05:07:24.221Z,82.66
2024-02-18T05:08:25.727Z,83.07
2024-02-18T05:09:27.353Z,83.62
2024-02-18T05:10:28.875Z,83.19
2024-02-18T05:11:30.400Z,83.78
2024-02-18T05:12:31.965Z,83.81
2024-02-18T05:13:33.462Z,83.41
2024-02-18T05:14:34.958Z,82.53
2024-02-18T05:15:36.733Z,82.14
2024-02-18T05:16:38.626Z,82.45
2024-02-18T05:17:42.245Z,82.46
2024-02-18T05:18:48.284Z,82.49
2024-02-18T05:19:51.211Z,82.49
2024-02-18T05:20:52.822Z,82.37
2024-02-18T05:21:54.685Z,82.61
2024-02-18T05:22:56.265Z,83.23
2024-02-18T05:24:01.017Z,83.31
2024-02-18T05:25:02.598Z,83.72
2024-02-18T05:26:05.358Z,83.30
2024-02-18T05:27:07.734Z,83.24
2024-02-18T05:28:09.299Z,82.60
2024-02-18T05:29:10.992Z,81.81
2024-02-18T05:30:12.960Z,81.60
2024-02-18T05:32:15.102Z,81.42
2024-02-18T05:33:16.760Z,81.67
2024-02-18T05:34:18.724Z,82.54
2024-02-18T05:35:20.570Z,82.46
2024-02-18T05:36:22.225Z,82.53
2024-02-18T05:37:23.957Z,82.31
2024-02-18T05:38:25.430Z,83.28
2024-02-18T05:39:26.967Z,83.89
2024-02-18T05:40:28.511Z,84.57
2024-02-18T05:41:30.204Z,83.99
2024-02-18T05:42:31.695Z,83.42
2024-02-18T05:43:33.255Z,84.27
2024-02-18T05:44:34.777Z,84.37
2024-02-18T05:45:37.617Z,84.42
2024-02-18T05:46:39.353Z,84.66
2024-02-18T05:47:40.972Z,83.97
2024-02-18T05:48:42.985Z,83.86
2024-02-18T05:49:45.135Z,84.01
2024-02-18T05:50:46.828Z,84.14
2024-02-18T05:51:53.708Z,83.92
2024-02-18T05:52:55.193Z,83.65
2024-02-18T05:53:56.953Z,83.84
2024-02-18T05:54:58.464Z,84.23
2024-02-18T05:56:00.045Z,84.13
2024-02-18T05:57:01.574Z,84.46
2024-02-18T05:58:03.186Z,84.47
2024-02-18T05:59:05.032Z,83.99
2024-02-18T06:00:07.197Z,83.90
2024-02-18T06:01:08.909Z,83.42
2024-02-18T06:02:10.957Z,83.51
2024-02-18T06:03:12.496Z,83.16
2024-02-18T06:04:14.055Z,82.91
2024-02-18T06:05:19.337Z,83.34
2024-02-18T06:06:21.154Z,83.65
2024-02-18T06:07:23.022Z,84.61
2024-02-18T06:08:27.443Z,84.75
2024-02-18T06:09:29.082Z,84.60
2024-02-18T06:10:31.097Z,84.14
2024-02-18T06:11:32.719Z,83.93
2024-02-18T06:12:34.256Z,84.58
2024-02-18T06:13:36.283Z,84.01
2024-02-18T06:14:37.972Z,83.53
2024-02-18T06:15:39.807Z,83.85
2024-02-18T06:16:41.358Z,84.26
2024-02-18T06:17:43.224Z,84.37
2024-02-18T06:18:45.112Z,84.19
2024-02-18T06:19:46.783Z,83.92
2024-02-18T06:20:48.864Z,83.96
2024-02-18T06:21:51.499Z,83.79
2024-02-18T06:22:53.384Z,84.83
2024-02-18T06:23:57.694Z,85.38
2024-02-18T06:24:59.368Z,85.14
2024-02-18T06:26:04.035Z,84.91
2024-02-18T06:27:06.545Z,84.35
2024-02-18T06:28:09.373Z,84.15
2024-02-18T06:29:11.014Z,83.94
2024-02-18T06:30:12.687Z,83.31
2024-02-18T06:31:14.265Z,84.36
2024-02-18T06:32:16.355Z,84.19
2024-02-18T06:33:17.935Z,83.43
2024-02-18T06:34:19.813Z,83.49
2024-02-18T06:35:21.648Z,83.70
2024-02-18T06:36:23.335Z,83.73
2024-02-18T06:37:24.814Z,82.78
2024-02-18T06:38:26.380Z,83.61
2024-02-18T06:39:27.893Z,83.45
2024-02-18T06:40:29.447Z,82.81
2024-02-18T06:41:32.486Z,83.19
2024-02-18T06:42:33.955Z,82.99
2024-02-18T06:43:35.566Z,83.30
2024-02-18T06:44:37.077Z,82.95
2024-02-18T06:45:38.626Z,82.41
2024-02-18T06:46:40.235Z,82.67
2024-02-18T06:47:41.818Z,82.32
2024-02-18T06:48:43.501Z,82.29
2024-02-18T06:49:45.227Z,82.40
2024-02-18T06:50:46.813Z,82.79
2024-02-18T06:51:48.508Z,82.58
2024-02-18T06:52:50.399Z,82.69
2024-02-18T06:53:53.794Z,82.51
2024-02-18T06:54:55.325Z,82.74
2024-02-18T06:55:56.823Z,83.18
2024-02-18T06:56:58.422Z,82.21
2024-02-18T06:57:59.918Z,81.90
2024-02-18T06:59:01.777Z,82.58
2024-02-18T07:00:03.715Z,83.29
2024-02-18T07:01:05.403Z,83.15
2024-02-18T07:02:07.169Z,83.42
2024-02-18T07:03:08.750Z,83.21
2024-02-18T07:04:10.441Z,83.53
2024-02-18T07:05:13.004Z,83.67
2024-02-18T07:06:15.403Z,83.51
2024-02-18T07:07:17.198Z,82.88
2024-02-18T07:08:18.698Z,82.29
2024-02-18T07:09:20.413Z,81.94
2024-02-18T07:10:21.918Z,81.38
2024-02-18T07:11:26.925Z,80.62
2024-02-18T07:12:30.348Z,80.81
2024-02-18T07:13:31.984Z,80.68
2024-02-18T07:14:33.473Z,81.12
2024-02-18T07:15:35.048Z,80.21
2024-02-18T07:16:36.537Z,80.57
2024-02-18T07:17:38.073Z,80.46
2024-02-18T07:18:39.877Z,81.04
2024-02-18T07:19:41.748Z,81.09
2024-02-18T07:20:43.348Z,81.05
2024-02-18T07:21:45.060Z,80.91
2024-02-18T07:22:46.854Z,81.17
2024-02-18T07:23:48.355Z,80.60
2024-02-18T07:24:49.846Z,80.41
2024-02-18T07:25:51.550Z,80.87
2024-02-18T07:26:53.086Z,80.92
2024-02-18T07:27:54.641Z,80.82
2024-02-18T07:28:59.356Z,80.70
2024-02-18T07:30:04.333Z,80.50
2024-02-18T07:31:06.822Z,79.32
2024-02-18T07:32:08.353Z,79.55
2024-02-18T07:33:10.613Z,79.38
2024-02-18T07:34:12.399Z,78.36
2024-02-18T07:35:14.079Z,77.48
2024-02-18T07:36:15.683Z,77.21
2024-02-18T07:37:17.292Z,77.13
2024-02-18T07:38:19.056Z,77.06
2024-02-18T07:39:21.392Z,76.33
2024-02-18T07:40:22.888Z,76.28
2024-02-18T07:41:26.380Z,76.48
2024-02-18T07:42:28.015Z,75.31
2024-02-18T07:43:29.523Z,74.76
2024-02-18T07:44:31.129Z,74.70
2024-02-18T07:45:32.753Z,74.17
2024-02-18T07:46:34.460Z,73.39
2024-02-18T07:47:36.095Z,73.17
2024-02-18T07:48:37.828Z,72.88
2024-02-18T07:49:39.673Z,72.53
2024-02-18T07:50:42.311Z,72.26
2024-02-18T07:51:44.083Z,71.66
2024-02-18T07:52:45.643Z,71.21
2024-02-18T07:53:47.275Z,70.67
2024-02-18T07:54:48.794Z,70.44
2024-02-18T07:55:50.678Z,70.75
2024-02-18T07:56:52.777Z,71.20
2024-02-18T07:57:54.301Z,70.62
2024-02-18T07:58:55.822Z,70.33
2024-02-18T07:59:57.505Z,71.95
2024-02-18T08:00:59.146Z,71.93
2024-02-18T08:02:00.870Z,71.70
2024-02-18T08:03:02.610Z,71.59
2024-02-18T08:04:04.366Z,71.80
2024-02-18T08:05:06.405Z,71.46
2024-02-18T08:06:11.176Z,70.58
2024-02-18T08:07:15.019Z,70.31
2024-02-18T08:08:16.572Z,70.33
2024-02-18T08:09:18.038Z,70.97
2024-02-18T08:10:19.597Z,69.98
2024-02-18T08:11:21.124Z,69.05
2024-02-18T08:12:22.860Z,69.09
2024-02-18T08:13:24.483Z,69.63
2024-02-18T08:14:26.111Z,70.26
2024-02-18T08:15:27.610Z,70.76
2024-02-18T08:16:30.064Z,71.67
2024-02-18T08:17:31.797Z,71.95
2024-02-18T08:18:33.491Z,72.28
2024-02-18T08:19:35.256Z,72.79
2024-02-18T08:20:41.597Z,72.82
2024-02-18T08:21:43.679Z,72.36
2024-02-18T08:22:45.640Z,72.57
2024-02-18T08:23:47.269Z,72.86
2024-02-18T08:24:49.326Z,72.94
2024-02-18T08:25:50.825Z,73.55
2024-02-18T08:26:52.295Z,73.03
2024-02-18T08:27:53.957Z,73.32
2024-02-18T08:28:55.535Z,72.84
2024-02-18T08:29:57.080Z,72.49
2024-02-18T08:30:58.604Z,72.70
2024-02-18T08:32:01.748Z,72.43
2024-02-18T08:33:03.635Z,73.12
2024-02-18T08:34:05.351Z,73.41
2024-02-18T08:35:07.374Z,73.46
2024-02-18T08:36:09.043Z,72.38
2024-02-18T08:37:10.550Z,71.99
2024-02-18T08:38:12.101Z,71.51
2024-02-18T08:39:13.630Z,71.69
2024-02-18T08:40:16.083Z,71.37
2024-02-18T08:41:17.761Z,70.89
2024-02-18T08:42:19.298Z,71.35
2024-02-18T08:43:20.856Z,72.39
2024-02-18T08:44:22.388Z,72.02
2024-02-18T08:45:24.017Z,72.31
2024-02-18T08:46:25.598Z,72.96
2024-02-18T08:47:27.206Z,74.09
2024-02-18T08:48:29.905Z,74.09
2024-02-18T08:49:31.567Z,73.99
2024-02-18T08:50:33.170Z,73.50
2024-02-18T08:51:35.185Z,73.73
2024-02-18T08:52:37.308Z,73.51
2024-02-18T08:53:39.520Z,73.39
2024-02-18T08:54:44.736Z,74.31
2024-02-18T08:55:47.465Z,73.40
2024-02-18T08:56:49.107Z,73.19
2024-02-18T08:57:51.392Z,72.89
2024-02-18T08:58:52.999Z,72.66
2024-02-18T08:59:54.615Z,73.35
2024-02-18T09:00:56.321Z,73.17
2024-02-18T09:02:00.548Z,72.66
2024-02-18T09:03:04.259Z,72.48
2024-02-18T09:04:05.885Z,72.50
2024-02-18T09:05:08.768Z,72.57
2024-02-18T09:06:10.650Z,72.46
2024-02-18T09:07:12.292Z,72.83
2024-02-18T09:08:13.836Z,72.32
2024-02-18T09:09:15.952Z,72.28
2024-02-18T09:10:17.707Z,72.50
2024-02-18T09:11:19.255Z,72.89
2024-02-18T09:12:21.389Z,72.54
2024-02-18T09:13:23.147Z,72.71
2024-02-18T09:14:24.914Z,72.94
2024-02-18T09:15:26.487Z,72.75
2024-02-18T09:16:27.956Z,72.67
2024-02-18T09:17:29.534Z,71.55
2024-02-18T09:18:31.260Z,70.93
2024-02-18T09:19:32.997Z,70.73
2024-02-18T09:20:35.285Z,71.21
2024-02-18T09:21:36.823Z,71.43
2024-02-18T09:22:38.298Z,70.83
2024-02-18T09:23:39.897Z,70.72
2024-02-18T09:24:44.707Z,70.22
2024-02-18T09:25:46.476Z,70.35
2024-02-18T09:26:49.087Z,70.66
2024-02-18T09:27:50.711Z,70.50
2024-02-18T09:28:52.786Z,69.50
2024-02-18T09:29:54.410Z,70.23
2024-02-18T09:30:56.754Z,68.58
2024-02-18T09:31:58.352Z,67.58
2024-02-18T09:32:59.898Z,67.60
2024-02-18T09:34:01.639Z,67.72
2024-02-18T09:35:04.218Z,67.89
2024-02-18T09:36:06.425Z,66.71
2024-02-18T09:37:07.999Z,66.89
2024-02-18T09:38:10.643Z,67.44
2024-02-18T09:39:12.890Z,67.88
2024-02-18T09:40:14.717Z,67.79
2024-02-18T09:41:18.654Z,64.86
2024-02-18T09:42:21.075Z,65.04
2024-02-18T09:43:25.955Z,64.09
2024-02-18T09:44:28.889Z,63.80
2024-02-18T09:45:33.437Z,62.64
2024-02-18T09:46:37.812Z,62.12
2024-02-18T09:47:41.573Z,61.95
2024-02-18T09:48:43.466Z,58.91
2024-02-18T09:49:45.214Z,56.96
2024-02-18T09:50:49.654Z,53.82
2024-02-18T09:51:55.650Z,51.02
2024-02-18T09:52:57.464Z,48.98
2024-02-18T09:53:59.844Z,47.63
2024-02-18T09:55:02.160Z,43.57
2024-02-18T09:56:03.952Z,44.32
2024-02-18T09:57:08.030Z,42.20
2024-02-18T09:58:09.614Z,40.22
2024-02-18T09:59:12.817Z,40.25
2024-02-18T10:00:14.786Z,39.69
2024-02-18T10:01:18.669Z,41.26
2024-02-18T10:02:21.902Z,40.83
2024-02-18T10:03:23.480Z,40.47
2024-02-18T10:04:26.453Z,43.18
2024-02-18T10:05:28.605Z,44.96
2024-02-18T10:06:30.357Z,45.45
2024-02-18T10:07:37.359Z,46.64
2024-02-18T10:08:43.065Z,48.32
2024-02-18T10:09:44.827Z,48.84
2024-02-18T10:10:47.812Z,48.09
2024-02-18T10:11:50.043Z,45.44
2024-02-18T10:12:51.568Z,45.26
2024-02-18T10:13:58.159Z,46.55
2024-02-18T10:15:02.466Z,47.01
2024-02-18T10:16:04.340Z,47.35
2024-02-18T10:17:05.828Z,46.53
2024-02-18T10:18:11.029Z,47.41
2024-02-18T10:19:12.900Z,45.36
2024-02-18T10:20:15.890Z,44.91
2024-02-18T10:21:18.058Z,45.65
2024-02-18T10:22:23.026Z,44.65
2024-02-18T10:23:24.826Z,45.13
2024-02-18T10:24:26.584Z,44.76
2024-02-18T10:25:28.247Z,45.52
2024-02-18T10:26:31.530Z,45.37
2024-02-18T10:27:33.403Z,45.62
2024-02-18T10:28:41.812Z,43.60
2024-02-18T10:29:49.448Z,43.57
2024-02-18T10:30:51.069Z,44.70
2024-02-18T10:31:52.612Z,44.04
2024-02-18T10:32:54.663Z,41.42
2024-02-18T10:33:56.501Z,41.30
2024-02-18T10:34:58.176Z,39.38
2024-02-18T10:36:23.218Z,37.70
2024-02-18T10:37:31.223Z,38.21
2024-02-18T10:38:34.373Z,38.34
2024-02-18T10:39:39.378Z,39.10
2024-02-18T10:40:48.706Z,38.74
2024-02-18T10:42:00.596Z,35.88
2024-02-18T10:43:02.604Z,35.07
2024-02-18T10:44:12.387Z,33.68
2024-02-18T10:45:14.000Z,33.77
2024-02-18T10:46:21.199Z,32.81
2024-02-18T10:47:25.547Z,32.27
2024-02-18T10:48:29.490Z,31.82
2024-02-18T10:49:41.303Z,31.40
2024-02-18T10:50:47.446Z,29.37
2024-02-18T10:51:55.124Z,29.47
2024-02-18T10:53:03.654Z,27.51
2024-02-18T10:54:34.135Z,29.75
2024-02-18T10:55:42.617Z,29.48
2024-02-18T10:56:44.333Z,29.88
2024-02-18T10:58:16.784Z,30.52
2024-02-18T10:59:57.646Z,29.83
2024-02-18T11:01:01.747Z,30.21
2024-02-18T11:02:14.835Z,29.43
2024-02-18T11:03:46.078Z,29.66
2024-02-18T11:04:48.630Z,28.24
2024-02-18T11:05:52.661Z,28.59
2024-02-18T11:06:56.383Z,31.09
2024-02-18T11:07:58.236Z,30.72
2024-02-18T11:09:00.513Z,30.51
2024-02-18T11:10:02.536Z,29.91
2024-02-18T11:11:04.327Z,30.98
2024-02-18T11:12:07.401Z,30.45
2024-02-18T11:13:09.975Z,31.98
2024-02-18T11:14:13.471Z,30.75
2024-02-18T11:15:14.948Z,30.69
2024-02-18T11:16:17.974Z,30.21
2024-02-18T11:17:21.092Z,29.48
2024-02-18T11:18:25.089Z,28.41
2024-02-18T11:19:27.934Z,28.17
2024-02-18T11:20:30.352Z,26.80
2024-02-18T11:21:33.233Z,26.65
2024-02-18T11:22:34.883Z,27.11
2024-02-18T11:23:36.521Z,28.80
2024-02-18T11:24:38.087Z,30.40
2024-02-18T11:25:40.184Z,32.19
2024-02-18T11:26:41.758Z,32.58
2024-02-18T11:27:43.356Z,33.10
2024-02-18T11:28:47.966Z,35.10
2024-02-18T11:29:51.682Z,35.95
2024-02-18T11:30:54.290Z,35.95
2024-02-18T11:31:56.032Z,38.29
2024-02-18T11:32:57.728Z,36.74
2024-02-18T11:34:00.437Z,35.57
2024-02-18T11:35:45.284Z,36.69
2024-02-18T11:36:47.220Z,37.88
2024-02-18T11:37:49.471Z,38.58
2024-02-18T11:38:57.126Z,37.30
2024-02-18T11:40:00.706Z,38.58
2024-02-18T11:41:02.323Z,39.90
2024-02-18T11:42:10.857Z,39.70
2024-02-18T11:43:12.434Z,39.78
2024-02-18T11:44:17.371Z,39.81
2024-02-18T11:45:24.716Z,40.45
2024-02-18T11:46:28.135Z,40.14
2024-02-18T11:47:29.920Z,40.53
2024-02-18T11:48:31.728Z,39.81
2024-02-18T11:49:33.424Z,40.91
2024-02-18T11:50:35.017Z,41.64
2024-02-18T11:51:37.842Z,41.34
2024-02-18T11:52:40.802Z,42.26
2024-02-18T11:53:42.955Z,41.78
2024-02-18T11:54:44.991Z,42.48
2024-02-18T11:55:46.539Z,41.42
2024-02-18T11:56:48.088Z,41.79
2024-02-18T11:57:49.816Z,41.35
2024-02-18T11:58:52.015Z,41.82
2024-02-18T11:59:53.725Z,40.21
2024-02-18T12:00:55.410Z,42.34
2024-02-18T12:01:57.365Z,41.52
2024-02-18T12:03:01.457Z,42.31
2024-02-18T12:04:04.541Z,42.72
2024-02-18T12:05:07.216Z,42.78
2024-02-18T12:06:08.931Z,42.78
2024-02-18T12:07:11.501Z,42.49
2024-02-18T12:08:14.101Z,42.56
2024-02-18T12:09:17.851Z,43.90
2024-02-18T12:10:19.573Z,43.54
2024-02-18T12:11:21.137Z,44.50
2024-02-18T12:12:22.700Z,44.29
2024-02-18T12:13:24.561Z,44.31
2024-02-18T12:14:26.117Z,43.72
2024-02-18T12:15:28.146Z,43.50
2024-02-18T12:16:30.180Z,44.02
2024-02-18T12:17:31.870Z,42.92
2024-02-18T12:18:34.388Z,43.02
2024-02-18T12:19:36.291Z,43.61
2024-02-18T12:20:38.237Z,43.86
2024-02-18T12:21:39.817Z,44.41
2024-02-18T12:22:45.799Z,44.35
2024-02-18T12:23:47.569Z,44.28
2024-02-18T12:24:50.339Z,45.13
2024-02-18T12:25:53.011Z,44.57
2024-02-18T12:26:55.065Z,44.97
2024-02-18T12:27:56.579Z,44.73
2024-02-18T12:28:58.180Z,43.88
2024-02-18T12:30:00.255Z,44.93
2024-02-18T12:31:03.402Z,44.64
2024-02-18T12:32:05.162Z,45.62
2024-02-18T12:33:06.988Z,45.36
2024-02-18T12:34:09.869Z,45.23
2024-02-18T12:35:11.945Z,45.90
2024-02-18T12:36:13.666Z,45.72
2024-02-18T12:37:27.145Z,44.63
2024-02-18T12:38:38.569Z,44.81
2024-02-18T12:39:42.579Z,44.59
2024-02-18T12:40:46.953Z,44.79
2024-02-18T12:41:48.674Z,45.70
2024-02-18T12:43:05.613Z,44.67
2024-02-18T12:44:44.529Z,44.50
2024-02-18T12:46:39.592Z,43.95
2024-02-18T12:47:41.519Z,44.29
2024-02-18T12:48:43.654Z,43.82
2024-02-18T12:49:46.431Z,44.66
2024-02-18T12:51:08.666Z,43.98
2024-02-18T12:52:15.324Z,43.54
2024-02-18T12:53:16.927Z,44.28
2024-02-18T12:54:21.329Z,43.89
2024-02-18T12:55:23.803Z,44.10
2024-02-18T12:56:25.847Z,44.46
2024-02-18T12:57:28.580Z,44.27
2024-02-18T12:58:30.403Z,44.29
2024-02-18T12:59:35.514Z,44.71
2024-02-18T13:00:37.163Z,43.82
2024-02-18T13:01:38.929Z,44.19
2024-02-18T13:02:45.008Z,44.22
2024-02-18T13:03:49.266Z,44.83
2024-02-18T13:04:55.345Z,44.44
2024-02-18T13:05:58.851Z,44.95
2024-02-18T13:07:10.301Z,44.39
2024-02-18T13:08:13.403Z,44.34
2024-02-18T13:09:22.769Z,44.32
2024-02-18T13:10:24.349Z,44.29
2024-02-18T13:11:27.125Z,44.35
2024-02-18T13:12:28.789Z,44.44
2024-02-18T13:13:30.393Z,44.29
2024-02-18T13:14:32.000Z,44.64
2024-02-18T13:15:33.570Z,44.20
2024-02-18T13:16:35.740Z,44.56
2024-02-18T13:17:37.346Z,44.16
2024-02-18T13:18:42.568Z,44.39
2024-02-18T13:19:45.370Z,45.01
2024-02-18T13:20:47.053Z,44.55
2024-02-18T13:21:48.648Z,44.67
2024-02-18T13:22:50.209Z,45.11
2024-02-18T13:23:51.904Z,45.43
2024-02-18T13:24:55.269Z,45.16
2024-02-18T13:25:57.033Z,45.09
2024-02-18T13:26:58.675Z,45.40
2024-02-18T13:28:00.371Z,44.96
2024-02-18T13:29:02.237Z,44.60
2024-02-18T13:30:04.256Z,44.52